sensor_id;sensor_type;location;lat;lon;timestamp;P1;durP1;ratioP1;P2;durP2;ratioP2
8702;SDS011;9002;42.708;23.186;2023-06-14T00:00:47;7.97;;;7.23;;
8702;SDS011;9002;42.708;23.186;2023-06-14T00:03:15;9.23;;;8.33;;
8702;SDS011;9002;42.708;23.186;2023-06-14T00:05:43;8.80;;;7.93;;
8702;SDS011;9002;42.708;23.186;2023-06-14T00:08:11;8.83;;;7.87;;
8702;SDS011;9002;42.708;23.186;2023-06-14T00:10:40;7.20;;;6.50;;
8702;SDS011;9002;42.708;23.186;2023-06-14T00:13:07;8.00;;;7.20;;
8702;SDS011;9002;42.708;23.186;2023-06-14T00:15:34;9.43;;;8.53;;
8702;SDS011;9002;42.708;23.186;2023-06-14T00:18:01;9.67;;;8.67;;
8702;SDS011;9002;42.708;23.186;2023-06-14T00:20:30;8.37;;;5.87;;
8702;SDS011;9002;42.708;23.186;2023-06-14T00:22:59;6.70;;;6.10;;
8702;SDS011;9002;42.708;23.186;2023-06-14T00:25:26;7.50;;;6.77;;
8702;SDS011;9002;42.708;23.186;2023-06-14T00:27:54;7.80;;;7.00;;
8702;SDS011;9002;42.708;23.186;2023-06-14T00:30:21;7.00;;;6.10;;
8702;SDS011;9002;42.708;23.186;2023-06-14T00:32:49;8.90;;;6.57;;
8702;SDS011;9002;42.708;23.186;2023-06-14T00:35:16;7.87;;;6.63;;
8702;SDS011;9002;42.708;23.186;2023-06-14T00:37:45;8.80;;;7.90;;
8702;SDS011;9002;42.708;23.186;2023-06-14T00:40:12;8.33;;;7.50;;
8702;SDS011;9002;42.708;23.186;2023-06-14T00:42:39;7.90;;;7.10;;
8702;SDS011;9002;42.708;23.186;2023-06-14T00:45:06;9.40;;;6.40;;
8702;SDS011;9002;42.708;23.186;2023-06-14T00:47:34;7.27;;;6.53;;
8702;SDS011;9002;42.708;23.186;2023-06-14T00:50:04;7.90;;;6.10;;
8702;SDS011;9002;42.708;23.186;2023-06-14T00:52:33;8.90;;;7.50;;
8702;SDS011;9002;42.708;23.186;2023-06-14T00:55:03;6.60;;;6.10;;
8702;SDS011;9002;42.708;23.186;2023-06-14T00:57:31;7.60;;;6.83;;
8702;SDS011;9002;42.708;23.186;2023-06-14T00:59:58;7.13;;;6.43;;
8702;SDS011;9002;42.708;23.186;2023-06-14T01:02:25;14.27;;;12.77;;
8702;SDS011;9002;42.708;23.186;2023-06-14T01:04:52;7.37;;;6.67;;
8702;SDS011;9002;42.708;23.186;2023-06-14T01:07:23;7.80;;;6.43;;
8702;SDS011;9002;42.708;23.186;2023-06-14T01:10:01;8.03;;;7.27;;
8702;SDS011;9002;42.708;23.186;2023-06-14T01:12:47;8.07;;;7.37;;
8702;SDS011;9002;42.708;23.186;2023-06-14T01:15:19;7.40;;;6.63;;
8702;SDS011;9002;42.708;23.186;2023-06-14T01:17:48;8.77;;;7.70;;
8702;SDS011;9002;42.708;23.186;2023-06-14T01:20:16;7.73;;;6.60;;
8702;SDS011;9002;42.708;23.186;2023-06-14T01:22:51;7.87;;;5.63;;
8702;SDS011;9002;42.708;23.186;2023-06-14T01:25:19;8.17;;;7.47;;
8702;SDS011;9002;42.708;23.186;2023-06-14T01:27:48;7.73;;;6.90;;
8702;SDS011;9002;42.708;23.186;2023-06-14T01:30:16;8.73;;;7.40;;
8702;SDS011;9002;42.708;23.186;2023-06-14T01:32:44;7.67;;;6.70;;
8702;SDS011;9002;42.708;23.186;2023-06-14T01:35:13;9.90;;;6.77;;
8702;SDS011;9002;42.708;23.186;2023-06-14T01:37:40;7.20;;;6.50;;
8702;SDS011;9002;42.708;23.186;2023-06-14T01:40:11;8.00;;;6.93;;
8702;SDS011;9002;42.708;23.186;2023-06-14T01:42:41;8.40;;;6.57;;
8702;SDS011;9002;42.708;23.186;2023-06-14T01:45:11;7.80;;;6.80;;
8702;SDS011;9002;42.708;23.186;2023-06-14T01:47:39;8.70;;;7.87;;
8702;SDS011;9002;42.708;23.186;2023-06-14T01:50:07;9.13;;;6.63;;
8702;SDS011;9002;42.708;23.186;2023-06-14T01:52:34;8.53;;;6.93;;
8702;SDS011;9002;42.708;23.186;2023-06-14T01:55:03;8.20;;;6.70;;
8702;SDS011;9002;42.708;23.186;2023-06-14T01:57:32;7.50;;;6.70;;
8702;SDS011;9002;42.708;23.186;2023-06-14T01:59:59;7.17;;;6.47;;
8702;SDS011;9002;42.708;23.186;2023-06-14T02:02:26;6.80;;;6.20;;
8702;SDS011;9002;42.708;23.186;2023-06-14T02:04:53;8.33;;;6.87;;
8702;SDS011;9002;42.708;23.186;2023-06-14T02:07:22;7.80;;;7.13;;
8702;SDS011;9002;42.708;23.186;2023-06-14T02:09:49;7.80;;;7.10;;
8702;SDS011;9002;42.708;23.186;2023-06-14T02:12:16;7.80;;;7.10;;
8702;SDS011;9002;42.708;23.186;2023-06-14T02:14:45;8.07;;;7.27;;
8702;SDS011;9002;42.708;23.186;2023-06-14T02:17:12;8.07;;;7.37;;
8702;SDS011;9002;42.708;23.186;2023-06-14T02:19:39;7.73;;;7.03;;
8702;SDS011;9002;42.708;23.186;2023-06-14T02:22:06;8.13;;;7.43;;
8702;SDS011;9002;42.708;23.186;2023-06-14T02:24:33;8.07;;;7.27;;
8702;SDS011;9002;42.708;23.186;2023-06-14T02:27:00;7.47;;;6.77;;
8702;SDS011;9002;42.708;23.186;2023-06-14T02:29:28;8.80;;;7.93;;
8702;SDS011;9002;42.708;23.186;2023-06-14T02:31:57;9.83;;;7.90;;
8702;SDS011;9002;42.708;23.186;2023-06-14T02:34:24;8.13;;;7.43;;
8702;SDS011;9002;42.708;23.186;2023-06-14T02:36:51;9.00;;;8.10;;
8702;SDS011;9002;42.708;23.186;2023-06-14T02:39:18;8.53;;;7.73;;
8702;SDS011;9002;42.708;23.186;2023-06-14T02:41:46;8.60;;;7.80;;
8702;SDS011;9002;42.708;23.186;2023-06-14T02:44:13;9.00;;;8.10;;
8702;SDS011;9002;42.708;23.186;2023-06-14T02:46:43;8.73;;;7.93;;
8702;SDS011;9002;42.708;23.186;2023-06-14T02:49:11;9.20;;;8.40;;
8702;SDS011;9002;42.708;23.186;2023-06-14T02:51:38;8.43;;;7.63;;
8702;SDS011;9002;42.708;23.186;2023-06-14T02:54:05;9.03;;;8.13;;
8702;SDS011;9002;42.708;23.186;2023-06-14T02:56:32;9.00;;;8.13;;
8702;SDS011;9002;42.708;23.186;2023-06-14T02:58:59;9.23;;;8.33;;
8702;SDS011;9002;42.708;23.186;2023-06-14T03:01:26;9.10;;;8.20;;
8702;SDS011;9002;42.708;23.186;2023-06-14T03:03:59;8.97;;;8.17;;
8702;SDS011;9002;42.708;23.186;2023-06-14T03:06:29;9.30;;;8.30;;
8702;SDS011;9002;42.708;23.186;2023-06-14T03:08:57;9.40;;;7.80;;
8702;SDS011;9002;42.708;23.186;2023-06-14T03:11:26;8.33;;;7.63;;
8702;SDS011;9002;42.708;23.186;2023-06-14T03:13:53;8.43;;;7.67;;
8702;SDS011;9002;42.708;23.186;2023-06-14T03:16:21;9.30;;;7.40;;
8702;SDS011;9002;42.708;23.186;2023-06-14T03:18:49;8.43;;;7.53;;
8702;SDS011;9002;42.708;23.186;2023-06-14T03:21:17;8.50;;;7.80;;
8702;SDS011;9002;42.708;23.186;2023-06-14T03:23:46;8.43;;;7.67;;
8702;SDS011;9002;42.708;23.186;2023-06-14T03:26:13;11.47;;;9.83;;
8702;SDS011;9002;42.708;23.186;2023-06-14T03:28:43;10.63;;;8.07;;
8702;SDS011;9002;42.708;23.186;2023-06-14T03:31:10;7.77;;;6.93;;
8702;SDS011;9002;42.708;23.186;2023-06-14T03:33:37;7.97;;;7.27;;
8702;SDS011;9002;42.708;23.186;2023-06-14T03:36:04;9.80;;;7.77;;
8702;SDS011;9002;42.708;23.186;2023-06-14T03:38:33;9.80;;;7.60;;
8702;SDS011;9002;42.708;23.186;2023-06-14T03:41:02;8.13;;;7.43;;
8702;SDS011;9002;42.708;23.186;2023-06-14T03:43:29;7.93;;;7.13;;
8702;SDS011;9002;42.708;23.186;2023-06-14T03:45:56;9.30;;;8.00;;
8702;SDS011;9002;42.708;23.186;2023-06-14T03:48:23;7.80;;;7.00;;
8702;SDS011;9002;42.708;23.186;2023-06-14T03:50:50;8.37;;;7.47;;
8702;SDS011;9002;42.708;23.186;2023-06-14T03:53:18;9.07;;;8.17;;
8702;SDS011;9002;42.708;23.186;2023-06-14T03:55:45;9.73;;;7.30;;
8702;SDS011;9002;42.708;23.186;2023-06-14T03:58:15;9.20;;;8.27;;
8702;SDS011;9002;42.708;23.186;2023-06-14T04:00:42;9.43;;;7.53;;
8702;SDS011;9002;42.708;23.186;2023-06-14T04:03:10;9.10;;;8.17;;
8702;SDS011;9002;42.708;23.186;2023-06-14T04:05:38;10.53;;;8.57;;
8702;SDS011;9002;42.708;23.186;2023-06-14T04:08:10;9.93;;;8.50;;
8702;SDS011;9002;42.708;23.186;2023-06-14T04:10:40;11.47;;;9.07;;
8702;SDS011;9002;42.708;23.186;2023-06-14T04:15:42;8.23;;;7.43;;
8702;SDS011;9002;42.708;23.186;2023-06-14T04:18:11;11.00;;;8.53;;
8702;SDS011;9002;42.708;23.186;2023-06-14T04:20:38;8.87;;;7.97;;
8702;SDS011;9002;42.708;23.186;2023-06-14T04:23:12;11.10;;;10.00;;
8702;SDS011;9002;42.708;23.186;2023-06-14T04:25:39;10.87;;;9.80;;
8702;SDS011;9002;42.708;23.186;2023-06-14T04:28:10;12.57;;;10.63;;
8702;SDS011;9002;42.708;23.186;2023-06-14T04:30:37;10.13;;;9.13;;
8702;SDS011;9002;42.708;23.186;2023-06-14T04:33:07;10.80;;;9.80;;
8702;SDS011;9002;42.708;23.186;2023-06-14T04:35:35;10.47;;;8.93;;
8702;SDS011;9002;42.708;23.186;2023-06-14T04:38:02;12.27;;;10.07;;
8702;SDS011;9002;42.708;23.186;2023-06-14T04:40:34;12.17;;;9.90;;
8702;SDS011;9002;42.708;23.186;2023-06-14T04:43:08;11.60;;;10.30;;
8702;SDS011;9002;42.708;23.186;2023-06-14T04:45:38;10.93;;;9.83;;
8702;SDS011;9002;42.708;23.186;2023-06-14T04:48:06;14.20;;;10.40;;
8702;SDS011;9002;42.708;23.186;2023-06-14T04:50:33;11.80;;;10.70;;
8702;SDS011;9002;42.708;23.186;2023-06-14T04:53:00;17.63;;;14.90;;
8702;SDS011;9002;42.708;23.186;2023-06-14T04:55:28;13.43;;;11.90;;
8702;SDS011;9002;42.708;23.186;2023-06-14T04:57:56;12.43;;;10.70;;
8702;SDS011;9002;42.708;23.186;2023-06-14T05:00:23;12.80;;;11.00;;
8702;SDS011;9002;42.708;23.186;2023-06-14T05:02:50;11.77;;;10.23;;
8702;SDS011;9002;42.708;23.186;2023-06-14T05:05:19;11.00;;;9.90;;
8702;SDS011;9002;42.708;23.186;2023-06-14T05:07:46;11.87;;;10.67;;
8702;SDS011;9002;42.708;23.186;2023-06-14T05:10:13;15.07;;;10.67;;
8702;SDS011;9002;42.708;23.186;2023-06-14T05:12:40;11.50;;;10.30;;
8702;SDS011;9002;42.708;23.186;2023-06-14T05:15:09;12.37;;;11.13;;
8702;SDS011;9002;42.708;23.186;2023-06-14T05:17:36;12.83;;;11.37;;
8702;SDS011;9002;42.708;23.186;2023-06-14T05:20:06;12.60;;;11.30;;
8702;SDS011;9002;42.708;23.186;2023-06-14T05:22:36;11.73;;;10.53;;
8702;SDS011;9002;42.708;23.186;2023-06-14T05:25:04;11.73;;;10.50;;
8702;SDS011;9002;42.708;23.186;2023-06-14T05:27:31;11.97;;;10.77;;
8702;SDS011;9002;42.708;23.186;2023-06-14T05:30:01;17.60;;;15.90;;
8702;SDS011;9002;42.708;23.186;2023-06-14T05:32:29;14.73;;;13.10;;
8702;SDS011;9002;42.708;23.186;2023-06-14T05:34:56;15.30;;;12.30;;
8702;SDS011;9002;42.708;23.186;2023-06-14T05:37:23;15.50;;;12.93;;
8702;SDS011;9002;42.708;23.186;2023-06-14T05:39:52;13.63;;;12.33;;
8702;SDS011;9002;42.708;23.186;2023-06-14T05:42:18;16.13;;;13.53;;
8702;SDS011;9002;42.708;23.186;2023-06-14T05:44:45;20.97;;;16.97;;
8702;SDS011;9002;42.708;23.186;2023-06-14T05:47:12;14.93;;;12.97;;
8702;SDS011;9002;42.708;23.186;2023-06-14T05:49:40;17.37;;;15.57;;
8702;SDS011;9002;42.708;23.186;2023-06-14T05:52:07;14.53;;;13.10;;
8702;SDS011;9002;42.708;23.186;2023-06-14T05:54:35;13.87;;;12.53;;
8702;SDS011;9002;42.708;23.186;2023-06-14T05:57:04;12.37;;;11.10;;
8702;SDS011;9002;42.708;23.186;2023-06-14T05:59:31;13.10;;;11.67;;
8702;SDS011;9002;42.708;23.186;2023-06-14T06:01:58;15.67;;;12.37;;
8702;SDS011;9002;42.708;23.186;2023-06-14T06:04:25;17.17;;;12.63;;
8702;SDS011;9002;42.708;23.186;2023-06-14T06:06:52;13.37;;;11.97;;
8702;SDS011;9002;42.708;23.186;2023-06-14T06:09:19;13.80;;;12.10;;
8702;SDS011;9002;42.708;23.186;2023-06-14T06:11:46;18.50;;;15.27;;
8702;SDS011;9002;42.708;23.186;2023-06-14T06:14:14;17.90;;;12.43;;
8702;SDS011;9002;42.708;23.186;2023-06-14T06:16:41;14.67;;;12.83;;
8702;SDS011;9002;42.708;23.186;2023-06-14T06:19:08;16.23;;;13.10;;
8702;SDS011;9002;42.708;23.186;2023-06-14T06:21:35;14.10;;;12.53;;
8702;SDS011;9002;42.708;23.186;2023-06-14T06:24:02;15.33;;;13.57;;
8702;SDS011;9002;42.708;23.186;2023-06-14T06:26:31;16.80;;;13.30;;
8702;SDS011;9002;42.708;23.186;2023-06-14T06:28:58;13.83;;;12.43;;
8702;SDS011;9002;42.708;23.186;2023-06-14T06:31:26;15.67;;;14.07;;
8702;SDS011;9002;42.708;23.186;2023-06-14T06:33:53;18.90;;;13.70;;
8702;SDS011;9002;42.708;23.186;2023-06-14T06:36:20;17.90;;;13.93;;
8702;SDS011;9002;42.708;23.186;2023-06-14T06:38:48;15.67;;;14.07;;
8702;SDS011;9002;42.708;23.186;2023-06-14T06:41:15;15.50;;;13.97;;
8702;SDS011;9002;42.708;23.186;2023-06-14T06:43:42;15.27;;;13.60;;
8702;SDS011;9002;42.708;23.186;2023-06-14T06:46:09;16.63;;;13.77;;
8702;SDS011;9002;42.708;23.186;2023-06-14T06:48:37;14.93;;;13.43;;
8702;SDS011;9002;42.708;23.186;2023-06-14T06:51:04;18.33;;;13.97;;
8702;SDS011;9002;42.708;23.186;2023-06-14T06:53:32;17.00;;;15.03;;
8702;SDS011;9002;42.708;23.186;2023-06-14T06:55:58;20.30;;;17.47;;
8702;SDS011;9002;42.708;23.186;2023-06-14T06:58:25;17.50;;;15.70;;
8702;SDS011;9002;42.708;23.186;2023-06-14T07:00:52;17.23;;;15.47;;
8702;SDS011;9002;42.708;23.186;2023-06-14T07:03:19;16.37;;;14.67;;
8702;SDS011;9002;42.708;23.186;2023-06-14T07:05:48;19.43;;;15.67;;
8702;SDS011;9002;42.708;23.186;2023-06-14T07:08:15;17.57;;;15.77;;
8702;SDS011;9002;42.708;23.186;2023-06-14T07:10:42;18.07;;;16.20;;
8702;SDS011;9002;42.708;23.186;2023-06-14T07:13:09;18.20;;;16.30;;
8702;SDS011;9002;42.708;23.186;2023-06-14T07:15:36;18.43;;;15.27;;
8702;SDS011;9002;42.708;23.186;2023-06-14T07:18:03;17.03;;;15.17;;
8702;SDS011;9002;42.708;23.186;2023-06-14T07:20:30;19.30;;;17.23;;
8702;SDS011;9002;42.708;23.186;2023-06-14T07:22:59;24.17;;;19.07;;
8702;SDS011;9002;42.708;23.186;2023-06-14T07:28:01;16.23;;;14.10;;
8702;SDS011;9002;42.708;23.186;2023-06-14T07:30:27;16.90;;;15.07;;
8702;SDS011;9002;42.708;23.186;2023-06-14T07:32:55;17.47;;;15.37;;
8702;SDS011;9002;42.708;23.186;2023-06-14T07:35:23;16.43;;;14.73;;
8702;SDS011;9002;42.708;23.186;2023-06-14T07:37:50;17.63;;;15.83;;
8702;SDS011;9002;42.708;23.186;2023-06-14T07:40:18;17.47;;;15.83;;
8702;SDS011;9002;42.708;23.186;2023-06-14T07:42:45;17.20;;;15.40;;
8702;SDS011;9002;42.708;23.186;2023-06-14T07:45:13;15.80;;;14.17;;
8702;SDS011;9002;42.708;23.186;2023-06-14T07:47:40;17.40;;;15.57;;
8702;SDS011;9002;42.708;23.186;2023-06-14T07:50:07;17.17;;;15.33;;
8702;SDS011;9002;42.708;23.186;2023-06-14T07:52:35;16.70;;;14.77;;
8702;SDS011;9002;42.708;23.186;2023-06-14T07:55:02;16.73;;;14.20;;
8702;SDS011;9002;42.708;23.186;2023-06-14T07:57:32;14.60;;;13.20;;
8702;SDS011;9002;42.708;23.186;2023-06-14T07:59:59;13.87;;;12.57;;
8702;SDS011;9002;42.708;23.186;2023-06-14T08:02:26;16.20;;;14.57;;
8702;SDS011;9002;42.708;23.186;2023-06-14T08:04:53;16.53;;;14.87;;
8702;SDS011;9002;42.708;23.186;2023-06-14T08:07:20;18.63;;;15.33;;
8702;SDS011;9002;42.708;23.186;2023-06-14T08:09:47;17.97;;;16.20;;
8702;SDS011;9002;42.708;23.186;2023-06-14T08:12:14;17.70;;;15.80;;
8702;SDS011;9002;42.708;23.186;2023-06-14T08:14:42;18.77;;;16.70;;
8702;SDS011;9002;42.708;23.186;2023-06-14T08:17:10;17.30;;;15.50;;
8702;SDS011;9002;42.708;23.186;2023-06-14T08:19:37;16.50;;;14.90;;
8702;SDS011;9002;42.708;23.186;2023-06-14T08:22:04;17.17;;;15.13;;
8702;SDS011;9002;42.708;23.186;2023-06-14T08:24:32;16.87;;;15.17;;
8702;SDS011;9002;42.708;23.186;2023-06-14T08:26:59;16.43;;;14.83;;
8702;SDS011;9002;42.708;23.186;2023-06-14T08:29:26;15.17;;;13.77;;
8702;SDS011;9002;42.708;23.186;2023-06-14T08:31:57;16.13;;;14.53;;
8702;SDS011;9002;42.708;23.186;2023-06-14T08:34:24;17.30;;;15.57;;
8702;SDS011;9002;42.708;23.186;2023-06-14T08:36:51;18.43;;;16.17;;
8702;SDS011;9002;42.708;23.186;2023-06-14T08:39:18;15.93;;;14.53;;
8702;SDS011;9002;42.708;23.186;2023-06-14T08:41:46;16.00;;;14.30;;
8702;SDS011;9002;42.708;23.186;2023-06-14T08:44:13;15.30;;;13.80;;
8702;SDS011;9002;42.708;23.186;2023-06-14T08:46:41;14.17;;;12.87;;
8702;SDS011;9002;42.708;23.186;2023-06-14T08:49:11;14.40;;;12.97;;
8702;SDS011;9002;42.708;23.186;2023-06-14T08:51:39;15.80;;;14.30;;
8702;SDS011;9002;42.708;23.186;2023-06-14T08:54:07;15.63;;;14.03;;
8702;SDS011;9002;42.708;23.186;2023-06-14T08:56:35;14.53;;;13.03;;
8702;SDS011;9002;42.708;23.186;2023-06-14T08:59:06;14.40;;;12.43;;
8702;SDS011;9002;42.708;23.186;2023-06-14T09:01:36;12.93;;;11.67;;
8702;SDS011;9002;42.708;23.186;2023-06-14T09:04:04;14.93;;;13.43;;
8702;SDS011;9002;42.708;23.186;2023-06-14T09:06:33;14.57;;;13.27;;
8702;SDS011;9002;42.708;23.186;2023-06-14T09:09:02;14.17;;;12.67;;
8702;SDS011;9002;42.708;23.186;2023-06-14T09:11:29;13.57;;;12.37;;
8702;SDS011;9002;42.708;23.186;2023-06-14T09:13:57;15.17;;;13.77;;
8702;SDS011;9002;42.708;23.186;2023-06-14T09:16:25;13.47;;;12.13;;
8702;SDS011;9002;42.708;23.186;2023-06-14T09:18:52;14.90;;;13.50;;
8702;SDS011;9002;42.708;23.186;2023-06-14T09:21:20;15.27;;;13.40;;
8702;SDS011;9002;42.708;23.186;2023-06-14T09:23:49;15.17;;;12.90;;
8702;SDS011;9002;42.708;23.186;2023-06-14T09:26:16;14.97;;;13.57;;
8702;SDS011;9002;42.708;23.186;2023-06-14T09:28:45;15.80;;;13.63;;
8702;SDS011;9002;42.708;23.186;2023-06-14T09:31:13;15.53;;;14.03;;
8702;SDS011;9002;42.708;23.186;2023-06-14T09:33:41;16.37;;;13.37;;
8702;SDS011;9002;42.708;23.186;2023-06-14T09:36:13;12.83;;;11.73;;
8702;SDS011;9002;42.708;23.186;2023-06-14T09:38:43;14.23;;;12.93;;
8702;SDS011;9002;42.708;23.186;2023-06-14T09:41:20;13.73;;;11.73;;
8702;SDS011;9002;42.708;23.186;2023-06-14T09:43:47;14.13;;;12.83;;
8702;SDS011;9002;42.708;23.186;2023-06-14T09:46:15;14.20;;;12.33;;
8702;SDS011;9002;42.708;23.186;2023-06-14T09:48:42;13.93;;;12.67;;
8702;SDS011;9002;42.708;23.186;2023-06-14T09:51:10;13.73;;;12.43;;
8702;SDS011;9002;42.708;23.186;2023-06-14T09:53:43;13.03;;;11.83;;
8702;SDS011;9002;42.708;23.186;2023-06-14T09:56:13;12.70;;;11.50;;
8702;SDS011;9002;42.708;23.186;2023-06-14T09:58:43;13.20;;;11.87;;
8702;SDS011;9002;42.708;23.186;2023-06-14T10:01:10;13.17;;;10.87;;
8702;SDS011;9002;42.708;23.186;2023-06-14T10:03:39;14.33;;;12.90;;
8702;SDS011;9002;42.708;23.186;2023-06-14T10:06:07;15.07;;;13.17;;
8702;SDS011;9002;42.708;23.186;2023-06-14T10:08:35;14.80;;;13.23;;
8702;SDS011;9002;42.708;23.186;2023-06-14T10:11:04;13.30;;;11.93;;
8702;SDS011;9002;42.708;23.186;2023-06-14T10:16:20;13.10;;;11.90;;
8702;SDS011;9002;42.708;23.186;2023-06-14T10:18:51;12.73;;;11.53;;
8702;SDS011;9002;42.708;23.186;2023-06-14T10:21:28;13.73;;;12.33;;
8702;SDS011;9002;42.708;23.186;2023-06-14T10:24:01;13.80;;;12.37;;
8702;SDS011;9002;42.708;23.186;2023-06-14T10:26:33;15.70;;;14.07;;
8702;SDS011;9002;42.708;23.186;2023-06-14T10:29:01;15.17;;;12.43;;
8702;SDS011;9002;42.708;23.186;2023-06-14T10:31:41;14.20;;;12.70;;
8702;SDS011;9002;42.708;23.186;2023-06-14T10:34:09;21.60;;;17.80;;
8702;SDS011;9002;42.708;23.186;2023-06-14T10:36:37;14.20;;;12.90;;
8702;SDS011;9002;42.708;23.186;2023-06-14T10:39:07;13.80;;;12.60;;
8702;SDS011;9002;42.708;23.186;2023-06-14T10:41:37;13.47;;;12.27;;
8702;SDS011;9002;42.708;23.186;2023-06-14T10:47:09;14.60;;;13.20;;
8702;SDS011;9002;42.708;23.186;2023-06-14T10:49:41;17.43;;;14.80;;
8702;SDS011;9002;42.708;23.186;2023-06-14T10:52:10;13.37;;;12.07;;
8702;SDS011;9002;42.708;23.186;2023-06-14T10:57:40;13.60;;;12.40;;
8702;SDS011;9002;42.708;23.186;2023-06-14T11:00:11;13.27;;;12.03;;
8702;SDS011;9002;42.708;23.186;2023-06-14T11:05:53;12.73;;;11.50;;
8702;SDS011;9002;42.708;23.186;2023-06-14T11:08:27;13.87;;;12.53;;
8702;SDS011;9002;42.708;23.186;2023-06-14T11:11:15;11.27;;;10.07;;
8702;SDS011;9002;42.708;23.186;2023-06-14T11:13:45;11.37;;;10.37;;
8702;SDS011;9002;42.708;23.186;2023-06-14T11:16:12;13.67;;;12.37;;
8702;SDS011;9002;42.708;23.186;2023-06-14T11:18:42;12.93;;;11.57;;
8702;SDS011;9002;42.708;23.186;2023-06-14T11:21:10;12.60;;;11.30;;
8702;SDS011;9002;42.708;23.186;2023-06-14T11:23:38;12.63;;;11.43;;
8702;SDS011;9002;42.708;23.186;2023-06-14T11:26:04;13.30;;;12.03;;
8702;SDS011;9002;42.708;23.186;2023-06-14T11:28:38;11.77;;;10.67;;
8702;SDS011;9002;42.708;23.186;2023-06-14T11:31:06;12.13;;;11.13;;
8702;SDS011;9002;42.708;23.186;2023-06-14T11:33:34;10.77;;;9.63;;
8702;SDS011;9002;42.708;23.186;2023-06-14T11:36:03;11.20;;;10.03;;
8702;SDS011;9002;42.708;23.186;2023-06-14T11:38:34;10.77;;;9.77;;
8702;SDS011;9002;42.708;23.186;2023-06-14T11:41:03;11.07;;;10.07;;
8702;SDS011;9002;42.708;23.186;2023-06-14T11:43:30;11.33;;;10.23;;
8702;SDS011;9002;42.708;23.186;2023-06-14T11:46:00;11.17;;;10.13;;
8702;SDS011;9002;42.708;23.186;2023-06-14T11:48:35;10.80;;;9.80;;
8702;SDS011;9002;42.708;23.186;2023-06-14T11:51:04;12.50;;;11.37;;
8702;SDS011;9002;42.708;23.186;2023-06-14T11:53:31;11.80;;;10.17;;
8702;SDS011;9002;42.708;23.186;2023-06-14T11:55:59;11.13;;;10.13;;
8702;SDS011;9002;42.708;23.186;2023-06-14T12:01:14;11.63;;;10.53;;
8702;SDS011;9002;42.708;23.186;2023-06-14T12:03:47;10.23;;;9.23;;
8702;SDS011;9002;42.708;23.186;2023-06-14T12:06:17;11.03;;;10.13;;
8702;SDS011;9002;42.708;23.186;2023-06-14T12:08:58;10.43;;;9.53;;
8702;SDS011;9002;42.708;23.186;2023-06-14T12:11:31;10.13;;;9.23;;
8702;SDS011;9002;42.708;23.186;2023-06-14T12:13:59;13.17;;;12.07;;
8702;SDS011;9002;42.708;23.186;2023-06-14T12:16:30;9.93;;;9.03;;
8702;SDS011;9002;42.708;23.186;2023-06-14T12:19:00;11.77;;;10.70;;
8702;SDS011;9002;42.708;23.186;2023-06-14T12:21:37;9.43;;;8.53;;
8702;SDS011;9002;42.708;23.186;2023-06-14T12:24:05;9.80;;;8.90;;
8702;SDS011;9002;42.708;23.186;2023-06-14T12:26:33;8.27;;;7.63;;
8702;SDS011;9002;42.708;23.186;2023-06-14T12:29:04;7.67;;;7.07;;
8702;SDS011;9002;42.708;23.186;2023-06-14T12:31:32;8.93;;;8.13;;
8702;SDS011;9002;42.708;23.186;2023-06-14T12:33:59;8.90;;;8.03;;
8702;SDS011;9002;42.708;23.186;2023-06-14T12:36:26;8.37;;;7.67;;
8702;SDS011;9002;42.708;23.186;2023-06-14T12:38:55;8.60;;;7.90;;
8702;SDS011;9002;42.708;23.186;2023-06-14T12:41:22;8.87;;;7.97;;
8702;SDS011;9002;42.708;23.186;2023-06-14T12:43:49;8.90;;;8.00;;
8702;SDS011;9002;42.708;23.186;2023-06-14T12:46:17;8.57;;;7.83;;
8702;SDS011;9002;42.708;23.186;2023-06-14T12:48:44;8.93;;;8.13;;
8702;SDS011;9002;42.708;23.186;2023-06-14T12:51:11;7.90;;;7.20;;
8702;SDS011;9002;42.708;23.186;2023-06-14T12:53:38;7.43;;;6.83;;
8702;SDS011;9002;42.708;23.186;2023-06-14T12:56:06;7.90;;;7.10;;
8702;SDS011;9002;42.708;23.186;2023-06-14T12:58:33;7.47;;;6.87;;
8702;SDS011;9002;42.708;23.186;2023-06-14T13:01:00;8.80;;;8.00;;
8702;SDS011;9002;42.708;23.186;2023-06-14T13:03:27;8.57;;;7.73;;
8702;SDS011;9002;42.708;23.186;2023-06-14T13:05:54;8.37;;;7.57;;
8702;SDS011;9002;42.708;23.186;2023-06-14T13:08:21;8.50;;;7.70;;
8702;SDS011;9002;42.708;23.186;2023-06-14T13:10:48;7.43;;;6.73;;
8702;SDS011;9002;42.708;23.186;2023-06-14T13:13:17;8.17;;;7.37;;
8702;SDS011;9002;42.708;23.186;2023-06-14T13:15:44;9.17;;;7.53;;
8702;SDS011;9002;42.708;23.186;2023-06-14T13:18:11;7.97;;;7.27;;
8702;SDS011;9002;42.708;23.186;2023-06-14T13:20:38;9.47;;;8.13;;
8702;SDS011;9002;42.708;23.186;2023-06-14T13:23:05;8.97;;;8.07;;
8702;SDS011;9002;42.708;23.186;2023-06-14T13:25:33;8.27;;;7.43;;
8702;SDS011;9002;42.708;23.186;2023-06-14T13:28:00;10.63;;;8.80;;
8702;SDS011;9002;42.708;23.186;2023-06-14T13:30:29;8.50;;;7.43;;
8702;SDS011;9002;42.708;23.186;2023-06-14T13:32:56;8.47;;;7.73;;
8702;SDS011;9002;42.708;23.186;2023-06-14T13:35:23;7.90;;;7.20;;
8702;SDS011;9002;42.708;23.186;2023-06-14T13:45:38;8.90;;;8.10;;
8702;SDS011;9002;42.708;23.186;2023-06-14T13:48:05;9.97;;;8.93;;
8702;SDS011;9002;42.708;23.186;2023-06-14T13:50:32;11.23;;;10.07;;
8702;SDS011;9002;42.708;23.186;2023-06-14T13:53:00;10.07;;;9.00;;
8702;SDS011;9002;42.708;23.186;2023-06-14T13:55:27;11.73;;;8.67;;
8702;SDS011;9002;42.708;23.186;2023-06-14T13:57:54;10.30;;;9.23;;
8702;SDS011;9002;42.708;23.186;2023-06-14T14:00:22;12.17;;;9.10;;
8702;SDS011;9002;42.708;23.186;2023-06-14T14:02:50;10.50;;;8.70;;
8702;SDS011;9002;42.708;23.186;2023-06-14T14:05:17;9.33;;;8.43;;
8702;SDS011;9002;42.708;23.186;2023-06-14T14:07:45;9.73;;;8.83;;
8702;SDS011;9002;42.708;23.186;2023-06-14T14:10:12;9.63;;;8.73;;
8702;SDS011;9002;42.708;23.186;2023-06-14T14:12:39;9.50;;;8.60;;
8702;SDS011;9002;42.708;23.186;2023-06-14T14:15:07;9.60;;;8.20;;
8702;SDS011;9002;42.708;23.186;2023-06-14T14:17:38;8.47;;;7.67;;
8702;SDS011;9002;42.708;23.186;2023-06-14T14:20:07;11.47;;;8.00;;
8702;SDS011;9002;42.708;23.186;2023-06-14T14:22:37;11.67;;;10.50;;
8702;SDS011;9002;42.708;23.186;2023-06-14T14:25:04;9.20;;;8.30;;
8702;SDS011;9002;42.708;23.186;2023-06-14T14:27:31;8.83;;;8.03;;
8702;SDS011;9002;42.708;23.186;2023-06-14T14:29:58;11.70;;;10.57;;
8702;SDS011;9002;42.708;23.186;2023-06-14T14:32:25;7.83;;;7.13;;
8702;SDS011;9002;42.708;23.186;2023-06-14T14:34:52;7.23;;;6.53;;
8702;SDS011;9002;42.708;23.186;2023-06-14T14:37:20;9.40;;;8.50;;
8702;SDS011;9002;42.708;23.186;2023-06-14T14:39:47;8.73;;;7.93;;
8702;SDS011;9002;42.708;23.186;2023-06-14T14:42:15;9.30;;;8.40;;
8702;SDS011;9002;42.708;23.186;2023-06-14T14:44:42;9.70;;;8.80;;
8702;SDS011;9002;42.708;23.186;2023-06-14T14:47:09;9.87;;;8.73;;
8702;SDS011;9002;42.708;23.186;2023-06-14T14:49:36;10.40;;;8.17;;
8702;SDS011;9002;42.708;23.186;2023-06-14T14:52:04;9.03;;;8.20;;
8702;SDS011;9002;42.708;23.186;2023-06-14T14:54:33;10.00;;;8.53;;
8702;SDS011;9002;42.708;23.186;2023-06-14T14:57:00;8.80;;;8.00;;
8702;SDS011;9002;42.708;23.186;2023-06-14T14:59:27;11.80;;;10.03;;
8702;SDS011;9002;42.708;23.186;2023-06-14T15:01:54;9.00;;;8.10;;
8702;SDS011;9002;42.708;23.186;2023-06-14T15:04:21;9.50;;;8.70;;
8702;SDS011;9002;42.708;23.186;2023-06-14T15:06:48;9.23;;;8.33;;
8702;SDS011;9002;42.708;23.186;2023-06-14T15:09:15;9.17;;;8.30;;
8702;SDS011;9002;42.708;23.186;2023-06-14T15:11:43;9.13;;;8.33;;
8702;SDS011;9002;42.708;23.186;2023-06-14T15:14:10;10.67;;;9.70;;
8702;SDS011;9002;42.708;23.186;2023-06-14T15:16:37;9.83;;;8.93;;
8702;SDS011;9002;42.708;23.186;2023-06-14T15:19:04;10.37;;;9.33;;
8702;SDS011;9002;42.708;23.186;2023-06-14T15:21:31;10.37;;;9.33;;